AirNav   ProFlight Series 2 Aviation Headset
 
 1604 users online  

4KY2 Manchester Memorial Hospital Heliport
Manchester, Kentucky, USA

GOING TO MANCHESTER?


FAA INFORMATION EFFECTIVE 08 OCTOBER 2020

Location

FAA Identifier: 4KY2
Lat/Long: 37-09-45.3700N 083-45-42.7000W
37-09.756167N 083-45.711667W
37.1626028,-83.7618611
(estimated)
Elevation: 935 ft. / 285 m (estimated)
Variation: 05W (2000)
From city: 1 mile N of MANCHESTER, KY
Time zone: UTC -4 (UTC -5 during Standard Time)
Zip code: 40962

Heliport Operations

Heliport use: Private use. Permission required prior to landing
Activation date: 03/2000
Control tower: no
ARTCC: INDIANAPOLIS CENTER
FSS: LOUISVILLE FLIGHT SERVICE STATION
NOTAMs facility: FDC (NOTAM-D service not available)
Attendance: CONTINUOUS
Wind indicator: lighted
Segmented circle: no
Lights: FOR PERIMETER LGTS CALL 606-598-5104.

Heliport Communications

WX ASOS at LOZ (16 nm W): 119.075 (606-877-1699)
  • APCH/DEP SVC PRVDD BY INDIANAPOLIS ARTCC (ZID) 121.325/124.625 (LONDON 2 RCAG)

Nearby radio navigation aids

VOR radial/distance  VOR name  Freq  Var
LOZr068/18.4LONDON VOR/DME116.1003W
AZQr244/27.5HAZARD VOR/DME111.2004W

 
NDB name  Hdg/Dist  Freq  Var  ID
SECO163/37.939303WXYC -..- -.-- -.-.

Heliport Services

Runway Information

Helipad H1

Dimensions: 50 x 50 ft. / 15 x 15 m
Surface: asphalt
Runway edge lights: PERI
Latitude: 37-09.756167N
Longitude: 083-45.711667W
Elevation: 935.0 ft.
Traffic pattern: leftleft

Heliport Ownership and Management from official FAA records

Ownership: Privately-owned
Owner: MANCHESTER MEMORIAL HOSPITAL
210 MARIE LANGDON DR
MANCHESTER, KY 40962
Phone 606-598-5104
Manager: MANCHESTER MEMORIAL HOSPITAL
210 MARIE LANGDON DR
MANCHESTER, KY 40962
Phone 606-598-5104

Additional Remarks

FOR CD CTC INDIANAPOLIS ARTCC AT 317-247-2411.

Instrument Procedures

There are no published instrument procedures at 4KY2.

Some nearby airports with instrument procedures:

KLOZ - London-Corbin Airport-Magee Field (16 nm W)
I35 - Tucker-Guthrie Memorial Airport (27 nm SE)
KCPF - Wendell H Ford Airport (27 nm NE)
KBYL - Williamsburg-Whitley County Airport (30 nm SW)
1A6 - Middlesboro-Bell County Airport (33 nm S)
 
Loc | Ops | Rwys | IFR | FBO | Links
Com | Nav | Svcs | Stats | Notes
Area around 4KY2 (Manchester Memorial Hospital Heliport)
 
Road maps at: MapQuest Bing Google
 
Aerial photo
No photo
 
Sectional chart

 
Airport distance calculator
Flying to Manchester Memorial Hospital Heliport? Find the distance to fly.

From to 4KY2

Sunrise and sunset
Times for 20-Oct-2020
 Local
(UTC-4)
 Zulu
(UTC)
Morning civil twilight07:2311:23
Sunrise07:5011:50
Sunset18:5022:50
Evening civil twilight19:1623:16

Current date and time
Zulu (UTC)  20-Oct-2020 18:22:17
Local (UTC-4)  20-Oct-2020 14:22:17
 
METAR
KLOZ 
15nm W 
201753Z AUTO 18008KT 10SM OVC033 22/14 A3021 RMK AO2 SLP221 T02220144 10228 20117 58013
KI35 
27nm SE 
201755Z AUTO 00000KT 10SM OVC031 22/14 A3024 RMK AO2 T02170135 10220 20097
KCPF 
27nm NE 
201755Z AUTO 26005KT 10SM BKN032 23/15 A3022 RMK AO2
KBYL 
30nm SW 
201755Z AUTO 14007KT 10SM OVC033 23/15 A3021 RMK AO1
TAF
KLOZ 
15nm W 
201740Z 2018/2118 20006KT P6SM BKN035 FM202100 VRB03KT P6SM SCT040
NOTAMs
Click for the latest NOTAMs
NOTAMs are issued by the DoD/FAA and will open in a separate window not controlled by AirNav.

 

 
 

Would you like to see your business listed on this page?

 If your business provides an interesting product or service to pilots, flight crews, aircraft, or users of the Manchester Memorial Hospital Heliport, you should consider listing it here.  To start the listing process, click on the button below
 
Add a business
 

Other Pages about Manchester Memorial Hospital Heliport

Update a link
 
Copyright © AirNav, LLC. All rights reserved. Privacy Policy  Contact